KFDW

Fairfield County Airport

Winnsboro, South Carolina, USA
METAR KFDW 241335Z AUTO 00000KT 10SM CLR 25/20 A3013 RMK AO1
Observed Flight Rules
May-24 @ 13:35 UTC (15 minutes ago) Visual Flight Rules
Visibility Clouds
10 miles
  • Clear skies
Temperatures Readings
Current 25°C / 77°F
Dewpoint 20°C / 68°F
Humidity 74%
Altimeter 30.13" Hg
Pressure 1020 hPa
Elevation 176
METAR KFDW 241335Z AUTO 00000KT 10SM CLR 25/20 A3013 RMK AO1
Observed Flight Rules
May-24 @ 13:35 UTC
(15 minutes ago)
VFR
Clouds
  • Clear skies
Temperature Dewpoint
25°C / 77°F 20°C / 68°F
Humidity Altimeter Pressure
74% 30.13" Hg 1020 hPa